Spirit Of Tasmania II — VNSZ — position and weather

sailwx.info

Track history (hours):
 
Tides and Currents Weather Stations Pressure Air Temp Water Temp Dewpoint Dewpoint Depression Visibility Wind Speed Wind Dir Waves Ship Positions

Spirit Of Tasmania II

Last reported at 2019-Aug-24 07:15 UTC. Time now 2019-Aug-24 07:52 UTC.
Position S 41°11' E 146°22'.

Length 194.3 m; beam 25 m; draft 6.2 m.

Type: Ship. MMSI: 503433000.

Date/timePositionNaut miles runAvg speedWind from/ knotsBaromVisibWave heightAir tempDewpointWater temp
2019-Aug-24 07:15S 41°11' E 146°22'0 0.0
2019-Aug-24 07:00S 41°11' E 146°22'0 0.0
2019-Aug-24 06:27S 41°11' E 146°22'0 0.0
2019-Aug-24 06:00S 41°11' E 146°22'0 0.0
2019-Aug-24 05:30S 41°11' E 146°22'0 0.0
2019-Aug-24 05:01S 41°11' E 146°22'0 0.0
2019-Aug-24 04:30S 41°11' E 146°22'0 0.0
2019-Aug-24 03:57S 41°11' E 146°22'0 0.0
2019-Aug-24 03:27S 41°11' E 146°22'0 0.0
2019-Aug-24 03:00S 41°11' E 146°22'0 0.0
2019-Aug-24 02:30S 41°11' E 146°22'0 0.0
2019-Aug-24 02:00S 41°11' E 146°22'0 0.0
2019-Aug-24 01:30S 41°11' E 146°22'0 0.0
2019-Aug-24 01:00S 41°11' E 146°22'0 0.0
2019-Aug-24 00:30S 41°11' E 146°22'0 0.0
2019-Aug-23 23:58S 41°11' E 146°22'0 0.0
2019-Aug-23 23:24S 41°11' E 146°22'0 0.0
2019-Aug-23 22:57S 41°11' E 146°22'0 0.0
2019-Aug-23 22:31S 41°11' E 146°22'0 0.0
2019-Aug-23 22:00S 41°11' E 146°22'0 0.0
2019-Aug-23 21:29S 41°11' E 146°22'0 0.0
2019-Aug-23 20:58S 41°11' E 146°22'0 0.0
2019-Aug-23 20:28S 41°11' E 146°22'0 0.0
2019-Aug-23 19:59S 41°11' E 146°22'4 7.9
2019-Aug-23 19:30S 41°07' E 146°22'1223.2
2019-Aug-23 19:00S 40°57' E 146°15'1223.2
2019-Aug-23 18:30S 40°47' E 146°06'1122.8
2019-Aug-23 18:00S 40°36' E 146°03'1122.5
2019-Aug-23 17:30S 40°25' E 145°59'11 0.3
2019-Aug-22 10:46S 40°36' E 146°03'827.1
2019-Aug-22 10:28S 40°43' E 146°07'1227.2
2019-Aug-22 10:01S 40°54' E 146°14'1427.1
2019-Aug-22 09:31S 41°06' E 146°21'4 6.8
2019-Aug-22 08:51S 41°11' E 146°22'0 0.0
2019-Aug-22 08:30S 41°11' E 146°22'0 0.0
2019-Aug-22 06:20S 41°11' E 146°22'0 0.0
2019-Aug-22 05:59S 41°11' E 146°22'46 1.1
2019-Aug-20 11:23S 40°29' E 145°58'924.1
2019-Aug-20 11:00S 40°37' E 146°03'1224.8
2019-Aug-20 10:30S 40°48' E 146°10'1325.2
2019-Aug-20 10:00S 40°59' E 146°17'1122.3
2019-Aug-20 09:30S 41°10' E 146°22'1 1.1
2019-Aug-20 08:28S 41°11' E 146°22'0 0.0
2019-Aug-20 06:14S 41°11' E 146°22'0 0.0
2019-Aug-20 05:59S 41°11' E 146°22'0 0.0
2019-Aug-20 05:30S 41°11' E 146°22'0 0.0
2019-Aug-20 04:56S 41°11' E 146°22'0 0.0
2019-Aug-20 04:29S 41°11' E 146°22'0 0.0
2019-Aug-20 04:00S 41°11' E 146°22'0 0.0
2019-Aug-20 03:30S 41°11' E 146°22'0 0.0
2019-Aug-20 03:01S 41°11' E 146°22'0 0.0
2019-Aug-20 02:29S 41°11' E 146°22'0 0.0
2019-Aug-20 02:00S 41°11' E 146°22'0 0.0
2019-Aug-20 01:29S 41°11' E 146°22'0 0.0
2019-Aug-20 00:57S 41°11' E 146°22'0 0.0
2019-Aug-20 00:31S 41°11' E 146°22'0 0.0
2019-Aug-20 00:00S 41°11' E 146°22'0 0.0
2019-Aug-19 23:24S 41°11' E 146°22'0 0.0
2019-Aug-19 22:59S 41°11' E 146°22'0 0.0
2019-Aug-19 22:23S 41°11' E 146°22'0 0.0
2019-Aug-19 20:00S 41°11' E 146°22'3 5.8
2019-Aug-19 19:30S 41°08' E 146°22'1121.6
2019-Aug-19 19:00S 40°58' E 146°16'1121.9
2019-Aug-19 18:30S 40°48' E 146°10'16 0.5
2019-Aug-18 10:59S 40°34' E 146°01'1424.1
2019-Aug-18 10:25S 40°47' E 146°09'1024.2
2019-Aug-18 10:01S 40°56' E 146°14'1224.1
2019-Aug-18 09:30S 41°07' E 146°22'4 8.7
2019-Aug-18 09:01S 41°11' E 146°22'0 0.0
2019-Aug-18 08:31S 41°11' E 146°22'0 0.0
2019-Aug-18 07:57S 41°11' E 146°22'0 0.0
2019-Aug-18 06:59S 41°11' E 146°22'0 0.0
2019-Aug-18 06:24S 41°11' E 146°22'0 0.0
2019-Aug-18 06:00S 41°11' E 146°22'0 0.0
2019-Aug-18 05:28S 41°11' E 146°22'0 0.0
2019-Aug-18 04:54S 41°11' E 146°22'0 0.0
2019-Aug-18 04:09S 41°11' E 146°22'0 0.0
2019-Aug-18 04:00S 41°11' E 146°22'0 0.0
2019-Aug-18 03:20S 41°11' E 146°22'0 0.0
2019-Aug-18 03:01S 41°11' E 146°22'0 0.0
2019-Aug-18 02:08S 41°11' E 146°22'0 0.0
2019-Aug-18 01:52S 41°11' E 146°22'0 0.0
2019-Aug-18 01:29S 41°11' E 146°22'0 0.0
2019-Aug-17 22:25S 41°11' E 146°22'2 0.9
2019-Aug-17 19:34S 41°08' E 146°23'116.4
2019-Aug-17 19:30S 41°07' E 146°22'1122.2
2019-Aug-17 19:00S 40°57' E 146°16'1122.3
2019-Aug-17 18:30S 40°47' E 146°09'2322.2
2019-Aug-17 17:29S 40°27' E 145°55'4 0.1
2019-Aug-16 11:10S 40°30' E 145°59'424.4
2019-Aug-16 11:00S 40°34' E 146°01'1224.5
2019-Aug-16 10:30S 40°44' E 146°08'1224.5
2019-Aug-16 10:00S 40°55' E 146°15'1224.3
2019-Aug-16 09:30S 41°07' E 146°22'4 1.2
2019-Aug-16 06:02S 41°11' E 146°22'0 0.0
2019-Aug-16 06:00S 41°11' E 146°22'2 0.2
2019-Aug-15 19:36S 41°09' E 146°23'218.7
2019-Aug-15 19:30S 41°07' E 146°22'1019.4
2019-Aug-15 19:00S 40°58' E 146°16'1019.6
2019-Aug-15 18:30S 40°50' E 146°11'1020.0
2019-Aug-15 18:00S 40°41' E 146°05'13 0.4
2019-Aug-14 11:19S 40°28' E 145°58'826.9
2019-Aug-14 11:00S 40°36' E 146°03'1427.0
2019-Aug-14 10:30S 40°48' E 146°10'1326.8
2019-Aug-14 10:00S 41°00' E 146°18'  
Track history (hours):
 
Tides and Currents Weather Stations Pressure Air Temp Water Temp Dewpoint Dewpoint Depression Visibility Wind Speed Wind Dir Waves Ship Positions

Spirit Of Tasmania II

Last reported at 2019-Aug-24 07:15 UTC. Time now 2019-Aug-24 07:52 UTC.
Position S 41°11' E 146°22'.

Length 194.3 m; beam 25 m; draft 6.2 m.

Type: Ship. MMSI: 503433000.

Date/timePositionNaut miles runAvg speedWind from/ knotsBaromVisibWave heightAir tempDewpointWater temp
2019-Aug-24 07:15S 41°11' E 146°22'0 0.0
2019-Aug-24 07:00S 41°11' E 146°22'0 0.0
2019-Aug-24 06:27S 41°11' E 146°22'0 0.0
2019-Aug-24 06:00S 41°11' E 146°22'0 0.0
2019-Aug-24 05:30S 41°11' E 146°22'0 0.0
2019-Aug-24 05:01S 41°11' E 146°22'0 0.0
2019-Aug-24 04:30S 41°11' E 146°22'0 0.0
2019-Aug-24 03:57S 41°11' E 146°22'0 0.0
2019-Aug-24 03:27S 41°11' E 146°22'0 0.0
2019-Aug-24 03:00S 41°11' E 146°22'0 0.0
2019-Aug-24 02:30S 41°11' E 146°22'0 0.0
2019-Aug-24 02:00S 41°11' E 146°22'0 0.0
2019-Aug-24 01:30S 41°11' E 146°22'0 0.0
2019-Aug-24 01:00S 41°11' E 146°22'0 0.0
2019-Aug-24 00:30S 41°11' E 146°22'0 0.0
2019-Aug-23 23:58S 41°11' E 146°22'0 0.0
2019-Aug-23 23:24S 41°11' E 146°22'0 0.0
2019-Aug-23 22:57S 41°11' E 146°22'0 0.0
2019-Aug-23 22:31S 41°11' E 146°22'0 0.0
2019-Aug-23 22:00S 41°11' E 146°22'0 0.0
2019-Aug-23 21:29S 41°11' E 146°22'0 0.0
2019-Aug-23 20:58S 41°11' E 146°22'0 0.0
2019-Aug-23 20:28S 41°11' E 146°22'0 0.0
2019-Aug-23 19:59S 41°11' E 146°22'4 7.9
2019-Aug-23 19:30S 41°07' E 146°22'1223.2
2019-Aug-23 19:00S 40°57' E 146°15'1223.2
2019-Aug-23 18:30S 40°47' E 146°06'1122.8
2019-Aug-23 18:00S 40°36' E 146°03'1122.5
2019-Aug-23 17:30S 40°25' E 145°59'11 0.3
2019-Aug-22 10:46S 40°36' E 146°03'827.1
2019-Aug-22 10:28S 40°43' E 146°07'1227.2
2019-Aug-22 10:01S 40°54' E 146°14'1427.1
2019-Aug-22 09:31S 41°06' E 146°21'4 6.8
2019-Aug-22 08:51S 41°11' E 146°22'0 0.0
2019-Aug-22 08:30S 41°11' E 146°22'0 0.0
2019-Aug-22 06:20S 41°11' E 146°22'0 0.0
2019-Aug-22 05:59S 41°11' E 146°22'46 1.1
2019-Aug-20 11:23S 40°29' E 145°58'924.1
2019-Aug-20 11:00S 40°37' E 146°03'1224.8
2019-Aug-20 10:30S 40°48' E 146°10'1325.2
2019-Aug-20 10:00S 40°59' E 146°17'1122.3
2019-Aug-20 09:30S 41°10' E 146°22'1 1.1
2019-Aug-20 08:28S 41°11' E 146°22'0 0.0
2019-Aug-20 06:14S 41°11' E 146°22'0 0.0
2019-Aug-20 05:59S 41°11' E 146°22'0 0.0
2019-Aug-20 05:30S 41°11' E 146°22'0 0.0
2019-Aug-20 04:56S 41°11' E 146°22'0 0.0
2019-Aug-20 04:29S 41°11' E 146°22'0 0.0
2019-Aug-20 04:00S 41°11' E 146°22'0 0.0
2019-Aug-20 03:30S 41°11' E 146°22'0 0.0
2019-Aug-20 03:01S 41°11' E 146°22'0 0.0
2019-Aug-20 02:29S 41°11' E 146°22'0 0.0
2019-Aug-20 02:00S 41°11' E 146°22'0 0.0
2019-Aug-20 01:29S 41°11' E 146°22'0 0.0
2019-Aug-20 00:57S 41°11' E 146°22'0 0.0
2019-Aug-20 00:31S 41°11' E 146°22'0 0.0
2019-Aug-20 00:00S 41°11' E 146°22'0 0.0
2019-Aug-19 23:24S 41°11' E 146°22'0 0.0
2019-Aug-19 22:59S 41°11' E 146°22'0 0.0
2019-Aug-19 22:23S 41°11' E 146°22'0 0.0
2019-Aug-19 20:00S 41°11' E 146°22'3 5.8
2019-Aug-19 19:30S 41°08' E 146°22'1121.6
2019-Aug-19 19:00S 40°58' E 146°16'1121.9
2019-Aug-19 18:30S 40°48' E 146°10'16 0.5
2019-Aug-18 10:59S 40°34' E 146°01'1424.1
2019-Aug-18 10:25S 40°47' E 146°09'1024.2
2019-Aug-18 10:01S 40°56' E 146°14'1224.1
2019-Aug-18 09:30S 41°07' E 146°22'4 8.7
2019-Aug-18 09:01S 41°11' E 146°22'0 0.0
2019-Aug-18 08:31S 41°11' E 146°22'0 0.0
2019-Aug-18 07:57S 41°11' E 146°22'0 0.0
2019-Aug-18 06:59S 41°11' E 146°22'0 0.0
2019-Aug-18 06:24S 41°11' E 146°22'0 0.0
2019-Aug-18 06:00S 41°11' E 146°22'0 0.0
2019-Aug-18 05:28S 41°11' E 146°22'0 0.0
2019-Aug-18 04:54S 41°11' E 146°22'0 0.0
2019-Aug-18 04:09S 41°11' E 146°22'0 0.0
2019-Aug-18 04:00S 41°11' E 146°22'0 0.0
2019-Aug-18 03:20S 41°11' E 146°22'0 0.0
2019-Aug-18 03:01S 41°11' E 146°22'0 0.0
2019-Aug-18 02:08S 41°11' E 146°22'0 0.0
2019-Aug-18 01:52S 41°11' E 146°22'0 0.0
2019-Aug-18 01:29S 41°11' E 146°22'0 0.0
2019-Aug-17 22:25S 41°11' E 146°22'2 0.9
2019-Aug-17 19:34S 41°08' E 146°23'116.4
2019-Aug-17 19:30S 41°07' E 146°22'1122.2
2019-Aug-17 19:00S 40°57' E 146°16'1122.3
2019-Aug-17 18:30S 40°47' E 146°09'2322.2
2019-Aug-17 17:29S 40°27' E 145°55'4 0.1
2019-Aug-16 11:10S 40°30' E 145°59'424.4
2019-Aug-16 11:00S 40°34' E 146°01'1224.5
2019-Aug-16 10:30S 40°44' E 146°08'1224.5
2019-Aug-16 10:00S 40°55' E 146°15'1224.3
2019-Aug-16 09:30S 41°07' E 146°22'4 1.2
2019-Aug-16 06:02S 41°11' E 146°22'0 0.0
2019-Aug-16 06:00S 41°11' E 146°22'2 0.2
2019-Aug-15 19:36S 41°09' E 146°23'218.7
2019-Aug-15 19:30S 41°07' E 146°22'1019.4
2019-Aug-15 19:00S 40°58' E 146°16'1019.6
2019-Aug-15 18:30S 40°50' E 146°11'1020.0
2019-Aug-15 18:00S 40°41' E 146°05'13 0.4
2019-Aug-14 11:19S 40°28' E 145°58'826.9
2019-Aug-14 11:00S 40°36' E 146°03'1427.0
2019-Aug-14 10:30S 40°48' E 146°10'1326.8
2019-Aug-14 10:00S 41°00' E 146°18'  

Dump ship's entire track history